Terminal Aerodrome Forecast
Issued by NWS Houston/Galveston, TX

Home | Current Version | Previous Version | Text Only | Print | Product List | Glossary On
Versions: 1 2 3 4 5 6 7 8 9 10 11 12 13 14 15 16 17 18 19 20 21 22 23 24 25 26 27 28 29 30 31 32 33 34 35 36 37 38 39 40 41 42 43
000
FTUS44 KHGX 011921 AAA
TAFCLL
TAF AMD
KCLL 011921Z 0119/0218 19011KT P6SM VCTS FEW025 SCT035CB BKN050
      TEMPO 0120/0122 VRB15G25KT 2SM TSRA OVC040CB
     FM020200 16007KT P6SM SCT250
     FM021100 18006KT 5SM BR SKC
     FM021400 20011KT P6SM FEW025=

USA.gov is the U.S. government's official web portal to all federal, state and local government web resources and services.